sensor_id;sensor_type;location;lat;lon;timestamp;P1;durP1;ratioP1;P2;durP2;ratioP2
18023;SDS011;9137;50.960;3.118;2022-08-02T00:01:41;11.48;;;10.13;;
18023;SDS011;9137;50.960;3.118;2022-08-02T00:04:10;11.85;;;9.77;;
18023;SDS011;9137;50.960;3.118;2022-08-02T00:06:37;11.48;;;10.27;;
18023;SDS011;9137;50.960;3.118;2022-08-02T00:09:04;12.50;;;10.27;;
18023;SDS011;9137;50.960;3.118;2022-08-02T00:11:32;12.65;;;10.20;;
18023;SDS011;9137;50.960;3.118;2022-08-02T00:13:59;10.73;;;9.60;;
18023;SDS011;9137;50.960;3.118;2022-08-02T00:16:26;10.90;;;9.70;;
18023;SDS011;9137;50.960;3.118;2022-08-02T00:18:53;11.55;;;9.73;;
18023;SDS011;9137;50.960;3.118;2022-08-02T00:21:21;10.93;;;9.73;;
18023;SDS011;9137;50.960;3.118;2022-08-02T00:23:48;10.32;;;8.98;;
18023;SDS011;9137;50.960;3.118;2022-08-02T00:26:15;10.43;;;9.35;;
18023;SDS011;9137;50.960;3.118;2022-08-02T00:28:42;12.73;;;9.20;;
18023;SDS011;9137;50.960;3.118;2022-08-02T00:31:09;9.63;;;8.30;;
18023;SDS011;9137;50.960;3.118;2022-08-02T00:33:36;10.40;;;8.32;;
18023;SDS011;9137;50.960;3.118;2022-08-02T00:36:03;9.25;;;8.35;;
18023;SDS011;9137;50.960;3.118;2022-08-02T00:38:32;9.25;;;8.15;;
18023;SDS011;9137;50.960;3.118;2022-08-02T00:40:59;10.15;;;8.20;;
18023;SDS011;9137;50.960;3.118;2022-08-02T00:43:26;9.85;;;7.93;;
18023;SDS011;9137;50.960;3.118;2022-08-02T00:45:53;9.40;;;7.80;;
18023;SDS011;9137;50.960;3.118;2022-08-02T00:48:20;9.60;;;7.78;;
18023;SDS011;9137;50.960;3.118;2022-08-02T00:50:47;9.63;;;8.20;;
18023;SDS011;9137;50.960;3.118;2022-08-02T00:53:14;9.93;;;7.87;;
18023;SDS011;9137;50.960;3.118;2022-08-02T00:55:42;15.23;;;8.45;;
18023;SDS011;9137;50.960;3.118;2022-08-02T00:58:09;9.80;;;7.95;;
18023;SDS011;9137;50.960;3.118;2022-08-02T01:00:36;9.80;;;7.60;;
18023;SDS011;9137;50.960;3.118;2022-08-02T01:03:03;9.10;;;7.60;;
18023;SDS011;9137;50.960;3.118;2022-08-02T01:05:30;9.37;;;7.60;;
18023;SDS011;9137;50.960;3.118;2022-08-02T01:07:57;10.43;;;7.97;;
18023;SDS011;9137;50.960;3.118;2022-08-02T01:10:24;8.53;;;7.37;;
18023;SDS011;9137;50.960;3.118;2022-08-02T01:12:53;8.48;;;7.68;;
18023;SDS011;9137;50.960;3.118;2022-08-02T01:15:20;11.85;;;7.68;;
18023;SDS011;9137;50.960;3.118;2022-08-02T01:17:49;9.48;;;7.93;;
18023;SDS011;9137;50.960;3.118;2022-08-02T01:20:32;11.23;;;8.67;;
18023;SDS011;9137;50.960;3.118;2022-08-02T01:23:20;9.65;;;7.63;;
18023;SDS011;9137;50.960;3.118;2022-08-02T01:28:59;10.30;;;8.30;;
18023;SDS011;9137;50.960;3.118;2022-08-02T01:31:29;10.23;;;8.88;;
18023;SDS011;9137;50.960;3.118;2022-08-02T01:34:00;11.43;;;8.93;;
18023;SDS011;9137;50.960;3.118;2022-08-02T01:36:37;12.40;;;8.75;;
18023;SDS011;9137;50.960;3.118;2022-08-02T01:39:08;10.47;;;8.03;;
18023;SDS011;9137;50.960;3.118;2022-08-02T01:41:38;9.13;;;8.23;;
18023;SDS011;9137;50.960;3.118;2022-08-02T01:44:09;10.30;;;8.82;;
18023;SDS011;9137;50.960;3.118;2022-08-02T01:46:38;11.57;;;9.17;;
18023;SDS011;9137;50.960;3.118;2022-08-02T01:49:09;13.23;;;9.68;;
18023;SDS011;9137;50.960;3.118;2022-08-02T01:51:41;10.98;;;9.00;;
18023;SDS011;9137;50.960;3.118;2022-08-02T01:54:28;11.48;;;9.02;;
18023;SDS011;9137;50.960;3.118;2022-08-02T01:56:57;10.05;;;8.32;;
18023;SDS011;9137;50.960;3.118;2022-08-02T01:59:28;9.77;;;8.20;;
18023;SDS011;9137;50.960;3.118;2022-08-02T02:01:57;8.75;;;7.85;;
18023;SDS011;9137;50.960;3.118;2022-08-02T02:04:27;9.10;;;8.13;;
18023;SDS011;9137;50.960;3.118;2022-08-02T02:06:56;9.07;;;7.97;;
18023;SDS011;9137;50.960;3.118;2022-08-02T02:09:24;9.47;;;7.80;;
18023;SDS011;9137;50.960;3.118;2022-08-02T02:11:53;8.77;;;7.93;;
18023;SDS011;9137;50.960;3.118;2022-08-02T02:14:23;11.65;;;9.02;;
18023;SDS011;9137;50.960;3.118;2022-08-02T02:16:52;9.27;;;7.63;;
18023;SDS011;9137;50.960;3.118;2022-08-02T02:19:22;8.47;;;7.60;;
18023;SDS011;9137;50.960;3.118;2022-08-02T02:21:50;8.52;;;7.07;;
18023;SDS011;9137;50.960;3.118;2022-08-02T02:24:18;7.80;;;7.00;;
18023;SDS011;9137;50.960;3.118;2022-08-02T02:26:45;8.15;;;6.80;;
18023;SDS011;9137;50.960;3.118;2022-08-02T02:29:12;8.00;;;6.70;;
18023;SDS011;9137;50.960;3.118;2022-08-02T02:31:42;8.10;;;7.13;;
18023;SDS011;9137;50.960;3.118;2022-08-02T02:34:12;10.13;;;7.60;;
18023;SDS011;9137;50.960;3.118;2022-08-02T02:36:44;7.80;;;7.10;;
18023;SDS011;9137;50.960;3.118;2022-08-02T02:39:14;8.83;;;6.90;;
18023;SDS011;9137;50.960;3.118;2022-08-02T02:41:43;7.68;;;6.85;;
18023;SDS011;9137;50.960;3.118;2022-08-02T02:44:13;7.63;;;6.72;;
18023;SDS011;9137;50.960;3.118;2022-08-02T02:46:43;7.53;;;6.77;;
18023;SDS011;9137;50.960;3.118;2022-08-02T02:49:14;7.77;;;6.90;;
18023;SDS011;9137;50.960;3.118;2022-08-02T02:51:42;7.35;;;6.40;;
18023;SDS011;9137;50.960;3.118;2022-08-02T02:54:10;9.40;;;7.28;;
18023;SDS011;9137;50.960;3.118;2022-08-02T02:56:38;7.63;;;6.85;;
18023;SDS011;9137;50.960;3.118;2022-08-02T02:59:07;8.52;;;7.07;;
18023;SDS011;9137;50.960;3.118;2022-08-02T03:01:34;8.23;;;6.50;;
18023;SDS011;9137;50.960;3.118;2022-08-02T03:04:03;7.82;;;6.65;;
18023;SDS011;9137;50.960;3.118;2022-08-02T03:06:33;11.55;;;6.82;;
18023;SDS011;9137;50.960;3.118;2022-08-02T03:09:02;7.97;;;6.15;;
18023;SDS011;9137;50.960;3.118;2022-08-02T03:11:29;8.65;;;6.65;;
18023;SDS011;9137;50.960;3.118;2022-08-02T03:13:57;7.22;;;6.13;;
18023;SDS011;9137;50.960;3.118;2022-08-02T03:16:25;8.20;;;6.75;;
18023;SDS011;9137;50.960;3.118;2022-08-02T03:18:53;8.27;;;6.30;;
18023;SDS011;9137;50.960;3.118;2022-08-02T03:21:21;8.00;;;6.30;;
18023;SDS011;9137;50.960;3.118;2022-08-02T03:23:50;7.10;;;6.40;;
18023;SDS011;9137;50.960;3.118;2022-08-02T03:26:17;7.88;;;6.45;;
18023;SDS011;9137;50.960;3.118;2022-08-02T03:28:44;7.88;;;6.90;;
18023;SDS011;9137;50.960;3.118;2022-08-02T03:31:11;7.38;;;5.85;;
18023;SDS011;9137;50.960;3.118;2022-08-02T03:33:38;7.38;;;5.63;;
18023;SDS011;9137;50.960;3.118;2022-08-02T03:36:06;6.20;;;5.60;;
18023;SDS011;9137;50.960;3.118;2022-08-02T03:38:36;7.97;;;7.05;;
18023;SDS011;9137;50.960;3.118;2022-08-02T03:41:05;7.57;;;6.88;;
18023;SDS011;9137;50.960;3.118;2022-08-02T03:43:34;7.55;;;6.55;;
18023;SDS011;9137;50.960;3.118;2022-08-02T03:46:03;9.20;;;7.43;;
18023;SDS011;9137;50.960;3.118;2022-08-02T03:48:30;9.90;;;6.88;;
18023;SDS011;9137;50.960;3.118;2022-08-02T03:50:59;7.93;;;6.47;;
18023;SDS011;9137;50.960;3.118;2022-08-02T03:53:26;7.55;;;6.70;;
18023;SDS011;9137;50.960;3.118;2022-08-02T03:55:54;7.00;;;6.30;;
18023;SDS011;9137;50.960;3.118;2022-08-02T03:58:22;7.88;;;6.32;;
18023;SDS011;9137;50.960;3.118;2022-08-02T04:00:50;8.43;;;6.37;;
18023;SDS011;9137;50.960;3.118;2022-08-02T04:03:18;6.90;;;6.17;;
18023;SDS011;9137;50.960;3.118;2022-08-02T04:05:45;7.60;;;6.27;;
18023;SDS011;9137;50.960;3.118;2022-08-02T04:08:13;7.00;;;6.30;;
18023;SDS011;9137;50.960;3.118;2022-08-02T04:10:40;8.77;;;6.30;;
18023;SDS011;9137;50.960;3.118;2022-08-02T04:13:27;8.52;;;7.05;;
18023;SDS011;9137;50.960;3.118;2022-08-02T04:15:58;8.50;;;6.20;;
18023;SDS011;9137;50.960;3.118;2022-08-02T04:18:35;8.00;;;6.78;;
18023;SDS011;9137;50.960;3.118;2022-08-02T04:21:06;10.57;;;6.35;;
18023;SDS011;9137;50.960;3.118;2022-08-02T04:23:37;7.03;;;6.22;;
18023;SDS011;9137;50.960;3.118;2022-08-02T04:26:05;7.18;;;6.32;;
18023;SDS011;9137;50.960;3.118;2022-08-02T04:28:34;8.13;;;6.50;;
18023;SDS011;9137;50.960;3.118;2022-08-02T04:31:02;7.50;;;6.68;;
18023;SDS011;9137;50.960;3.118;2022-08-02T04:33:31;8.77;;;6.28;;
18023;SDS011;9137;50.960;3.118;2022-08-02T04:35:59;7.07;;;6.18;;
18023;SDS011;9137;50.960;3.118;2022-08-02T04:38:27;8.05;;;6.47;;
18023;SDS011;9137;50.960;3.118;2022-08-02T04:40:54;6.73;;;5.90;;
18023;SDS011;9137;50.960;3.118;2022-08-02T04:43:21;6.33;;;5.60;;
18023;SDS011;9137;50.960;3.118;2022-08-02T04:45:51;8.55;;;6.18;;
18023;SDS011;9137;50.960;3.118;2022-08-02T04:48:19;7.13;;;5.57;;
18023;SDS011;9137;50.960;3.118;2022-08-02T04:50:46;6.97;;;6.07;;
18023;SDS011;9137;50.960;3.118;2022-08-02T04:53:13;8.18;;;6.03;;
18023;SDS011;9137;50.960;3.118;2022-08-02T04:55:40;6.77;;;6.00;;
18023;SDS011;9137;50.960;3.118;2022-08-02T04:58:07;8.20;;;6.13;;
18023;SDS011;9137;50.960;3.118;2022-08-02T05:00:34;8.77;;;6.53;;
18023;SDS011;9137;50.960;3.118;2022-08-02T05:03:03;9.43;;;6.13;;
18023;SDS011;9137;50.960;3.118;2022-08-02T05:05:30;7.38;;;6.68;;
18023;SDS011;9137;50.960;3.118;2022-08-02T05:07:57;7.78;;;6.22;;
18023;SDS011;9137;50.960;3.118;2022-08-02T05:10:24;8.30;;;6.32;;
18023;SDS011;9137;50.960;3.118;2022-08-02T05:12:51;7.43;;;6.63;;
18023;SDS011;9137;50.960;3.118;2022-08-02T05:15:18;8.48;;;6.55;;
18023;SDS011;9137;50.960;3.118;2022-08-02T05:17:46;8.37;;;6.77;;
18023;SDS011;9137;50.960;3.118;2022-08-02T05:20:15;8.70;;;6.85;;
18023;SDS011;9137;50.960;3.118;2022-08-02T05:22:42;8.27;;;6.97;;
18023;SDS011;9137;50.960;3.118;2022-08-02T05:25:10;7.22;;;6.28;;
18023;SDS011;9137;50.960;3.118;2022-08-02T05:27:37;9.30;;;6.90;;
18023;SDS011;9137;50.960;3.118;2022-08-02T05:30:05;8.40;;;6.70;;
18023;SDS011;9137;50.960;3.118;2022-08-02T05:32:34;10.15;;;7.43;;
18023;SDS011;9137;50.960;3.118;2022-08-02T05:35:07;9.63;;;7.10;;
18023;SDS011;9137;50.960;3.118;2022-08-02T05:37:36;9.40;;;7.68;;
18023;SDS011;9137;50.960;3.118;2022-08-02T05:40:03;8.43;;;7.28;;
18023;SDS011;9137;50.960;3.118;2022-08-02T05:42:31;10.32;;;7.20;;
18023;SDS011;9137;50.960;3.118;2022-08-02T05:44:58;9.60;;;6.88;;
18023;SDS011;9137;50.960;3.118;2022-08-02T05:47:25;9.10;;;6.68;;
18023;SDS011;9137;50.960;3.118;2022-08-02T05:49:52;8.93;;;6.72;;
18023;SDS011;9137;50.960;3.118;2022-08-02T05:52:20;8.90;;;7.22;;
18023;SDS011;9137;50.960;3.118;2022-08-02T05:54:53;8.00;;;6.73;;
18023;SDS011;9137;50.960;3.118;2022-08-02T05:57:29;8.23;;;7.38;;
18023;SDS011;9137;50.960;3.118;2022-08-02T06:00:05;8.32;;;7.30;;
18023;SDS011;9137;50.960;3.118;2022-08-02T06:02:38;7.63;;;6.43;;
18023;SDS011;9137;50.960;3.118;2022-08-02T06:05:15;7.93;;;6.73;;
18023;SDS011;9137;50.960;3.118;2022-08-02T06:07:44;8.77;;;6.93;;
18023;SDS011;9137;50.960;3.118;2022-08-02T06:10:15;8.77;;;7.30;;
18023;SDS011;9137;50.960;3.118;2022-08-02T06:12:48;8.93;;;6.75;;
18023;SDS011;9137;50.960;3.118;2022-08-02T06:15:17;8.15;;;6.78;;
18023;SDS011;9137;50.960;3.118;2022-08-02T06:17:44;10.40;;;6.43;;
18023;SDS011;9137;50.960;3.118;2022-08-02T06:20:12;9.00;;;6.57;;
18023;SDS011;9137;50.960;3.118;2022-08-02T06:22:40;8.15;;;5.75;;
18023;SDS011;9137;50.960;3.118;2022-08-02T06:25:09;9.43;;;6.40;;
18023;SDS011;9137;50.960;3.118;2022-08-02T06:27:38;7.57;;;6.20;;
18023;SDS011;9137;50.960;3.118;2022-08-02T06:30:06;9.38;;;6.18;;
18023;SDS011;9137;50.960;3.118;2022-08-02T06:32:34;8.02;;;6.53;;
18023;SDS011;9137;50.960;3.118;2022-08-02T06:35:02;7.25;;;5.85;;
18023;SDS011;9137;50.960;3.118;2022-08-02T06:37:32;7.50;;;5.97;;
18023;SDS011;9137;50.960;3.118;2022-08-02T06:40:03;6.47;;;4.95;;
18023;SDS011;9137;50.960;3.118;2022-08-02T06:42:39;7.13;;;5.30;;
18023;SDS011;9137;50.960;3.118;2022-08-02T06:45:13;6.00;;;4.90;;
18023;SDS011;9137;50.960;3.118;2022-08-02T06:47:40;6.63;;;4.72;;
18023;SDS011;9137;50.960;3.118;2022-08-02T06:50:07;6.00;;;5.10;;
18023;SDS011;9137;50.960;3.118;2022-08-02T06:52:35;6.00;;;4.22;;
18023;SDS011;9137;50.960;3.118;2022-08-02T06:55:03;9.63;;;4.30;;
18023;SDS011;9137;50.960;3.118;2022-08-02T06:57:32;7.10;;;4.30;;
18023;SDS011;9137;50.960;3.118;2022-08-02T07:00:05;6.05;;;4.45;;
18023;SDS011;9137;50.960;3.118;2022-08-02T07:02:33;4.78;;;3.67;;
18023;SDS011;9137;50.960;3.118;2022-08-02T07:05:01;5.70;;;3.60;;
18023;SDS011;9137;50.960;3.118;2022-08-02T07:07:28;5.93;;;3.75;;
18023;SDS011;9137;50.960;3.118;2022-08-02T07:09:56;5.28;;;3.70;;
18023;SDS011;9137;50.960;3.118;2022-08-02T07:12:23;4.00;;;3.40;;
18023;SDS011;9137;50.960;3.118;2022-08-02T07:14:50;3.80;;;3.50;;
18023;SDS011;9137;50.960;3.118;2022-08-02T07:17:19;5.00;;;4.03;;
18023;SDS011;9137;50.960;3.118;2022-08-02T07:19:46;4.75;;;3.60;;
18023;SDS011;9137;50.960;3.118;2022-08-02T07:22:13;4.50;;;4.07;;
18023;SDS011;9137;50.960;3.118;2022-08-02T07:24:42;6.10;;;4.00;;
18023;SDS011;9137;50.960;3.118;2022-08-02T07:27:09;5.35;;;4.22;;
18023;SDS011;9137;50.960;3.118;2022-08-02T07:29:36;5.45;;;4.25;;
18023;SDS011;9137;50.960;3.118;2022-08-02T07:32:03;7.97;;;4.20;;
18023;SDS011;9137;50.960;3.118;2022-08-02T07:34:32;4.03;;;3.60;;
18023;SDS011;9137;50.960;3.118;2022-08-02T07:36:59;4.47;;;3.60;;
18023;SDS011;9137;50.960;3.118;2022-08-02T07:39:27;4.47;;;3.03;;
18023;SDS011;9137;50.960;3.118;2022-08-02T07:41:54;3.72;;;2.72;;
18023;SDS011;9137;50.960;3.118;2022-08-02T07:44:21;3.03;;;2.70;;
18023;SDS011;9137;50.960;3.118;2022-08-02T07:46:48;4.35;;;2.53;;
18023;SDS011;9137;50.960;3.118;2022-08-02T07:49:15;4.37;;;2.67;;
18023;SDS011;9137;50.960;3.118;2022-08-02T07:51:45;3.25;;;2.75;;
18023;SDS011;9137;50.960;3.118;2022-08-02T07:54:12;5.70;;;2.67;;
18023;SDS011;9137;50.960;3.118;2022-08-02T07:56:39;4.53;;;2.63;;
18023;SDS011;9137;50.960;3.118;2022-08-02T07:59:06;2.65;;;2.15;;
18023;SDS011;9137;50.960;3.118;2022-08-02T08:01:34;3.42;;;2.60;;
18023;SDS011;9137;50.960;3.118;2022-08-02T08:04:01;3.17;;;2.20;;
18023;SDS011;9137;50.960;3.118;2022-08-02T08:06:28;2.50;;;2.20;;
18023;SDS011;9137;50.960;3.118;2022-08-02T08:08:57;3.92;;;2.30;;
18023;SDS011;9137;50.960;3.118;2022-08-02T08:11:24;3.20;;;1.98;;
18023;SDS011;9137;50.960;3.118;2022-08-02T08:13:51;3.25;;;2.00;;
18023;SDS011;9137;50.960;3.118;2022-08-02T08:16:18;3.03;;;1.92;;
18023;SDS011;9137;50.960;3.118;2022-08-02T08:18:45;1.90;;;1.80;;
18023;SDS011;9137;50.960;3.118;2022-08-02T08:21:12;2.53;;;2.13;;
18023;SDS011;9137;50.960;3.118;2022-08-02T08:23:39;2.40;;;2.20;;
18023;SDS011;9137;50.960;3.118;2022-08-02T08:26:08;1.75;;;1.65;;
18023;SDS011;9137;50.960;3.118;2022-08-02T08:28:35;2.20;;;1.50;;
18023;SDS011;9137;50.960;3.118;2022-08-02T08:31:02;3.08;;;1.80;;
18023;SDS011;9137;50.960;3.118;2022-08-02T08:33:29;3.70;;;1.50;;
18023;SDS011;9137;50.960;3.118;2022-08-02T08:35:56;3.42;;;1.77;;
18023;SDS011;9137;50.960;3.118;2022-08-02T08:38:23;2.80;;;1.50;;
18023;SDS011;9137;50.960;3.118;2022-08-02T08:40:50;5.03;;;1.67;;
18023;SDS011;9137;50.960;3.118;2022-08-02T08:43:18;1.33;;;1.20;;
18023;SDS011;9137;50.960;3.118;2022-08-02T08:45:46;2.33;;;1.58;;
18023;SDS011;9137;50.960;3.118;2022-08-02T08:48:16;2.38;;;1.40;;
18023;SDS011;9137;50.960;3.118;2022-08-02T08:50:45;1.85;;;1.30;;
18023;SDS011;9137;50.960;3.118;2022-08-02T08:53:16;2.63;;;1.98;;
18023;SDS011;9137;50.960;3.118;2022-08-02T08:55:43;3.80;;;1.88;;
18023;SDS011;9137;50.960;3.118;2022-08-02T08:58:11;2.40;;;1.60;;
18023;SDS011;9137;50.960;3.118;2022-08-02T09:00:39;1.77;;;1.40;;
18023;SDS011;9137;50.960;3.118;2022-08-02T09:03:07;3.05;;;1.60;;
18023;SDS011;9137;50.960;3.118;2022-08-02T09:05:35;2.47;;;1.67;;
18023;SDS011;9137;50.960;3.118;2022-08-02T09:08:03;1.63;;;1.48;;
18023;SDS011;9137;50.960;3.118;2022-08-02T09:10:35;2.10;;;1.40;;
18023;SDS011;9137;50.960;3.118;2022-08-02T09:13:07;4.65;;;1.73;;
18023;SDS011;9137;50.960;3.118;2022-08-02T09:15:42;2.95;;;1.40;;
18023;SDS011;9137;50.960;3.118;2022-08-02T09:18:11;2.70;;;1.60;;
18023;SDS011;9137;50.960;3.118;2022-08-02T09:23:32;2.37;;;1.67;;
18023;SDS011;9137;50.960;3.118;2022-08-02T09:26:01;2.95;;;1.38;;
18023;SDS011;9137;50.960;3.118;2022-08-02T09:28:30;2.95;;;1.60;;
18023;SDS011;9137;50.960;3.118;2022-08-02T09:31:03;2.03;;;1.48;;
18023;SDS011;9137;50.960;3.118;2022-08-02T09:33:31;1.73;;;1.40;;
18023;SDS011;9137;50.960;3.118;2022-08-02T09:35:59;2.15;;;1.55;;
18023;SDS011;9137;50.960;3.118;2022-08-02T09:38:28;2.70;;;1.50;;
18023;SDS011;9137;50.960;3.118;2022-08-02T09:40:56;2.20;;;2.00;;
18023;SDS011;9137;50.960;3.118;2022-08-02T09:46:10;2.17;;;1.63;;
18023;SDS011;9137;50.960;3.118;2022-08-02T09:48:45;2.45;;;1.35;;
18023;SDS011;9137;50.960;3.118;2022-08-02T09:51:15;1.88;;;1.60;;
18023;SDS011;9137;50.960;3.118;2022-08-02T09:53:43;2.53;;;1.85;;
18023;SDS011;9137;50.960;3.118;2022-08-02T09:56:12;1.75;;;1.65;;
18023;SDS011;9137;50.960;3.118;2022-08-02T09:58:39;1.85;;;1.70;;
18023;SDS011;9137;50.960;3.118;2022-08-02T10:01:06;2.25;;;1.88;;
18023;SDS011;9137;50.960;3.118;2022-08-02T10:03:35;2.75;;;1.70;;
18023;SDS011;9137;50.960;3.118;2022-08-02T10:06:02;2.13;;;1.65;;
18023;SDS011;9137;50.960;3.118;2022-08-02T10:08:30;2.38;;;1.80;;
18023;SDS011;9137;50.960;3.118;2022-08-02T10:10:57;2.28;;;1.60;;
18023;SDS011;9137;50.960;3.118;2022-08-02T10:13:28;2.63;;;1.52;;
18023;SDS011;9137;50.960;3.118;2022-08-02T10:15:56;2.40;;;1.90;;
18023;SDS011;9137;50.960;3.118;2022-08-02T10:18:24;3.20;;;1.50;;
18023;SDS011;9137;50.960;3.118;2022-08-02T10:20:53;2.85;;;1.60;;
18023;SDS011;9137;50.960;3.118;2022-08-02T10:23:21;3.20;;;1.60;;
18023;SDS011;9137;50.960;3.118;2022-08-02T10:25:52;5.45;;;1.73;;
18023;SDS011;9137;50.960;3.118;2022-08-02T10:28:21;2.10;;;1.40;;
18023;SDS011;9137;50.960;3.118;2022-08-02T10:30:52;2.17;;;1.17;;
18023;SDS011;9137;50.960;3.118;2022-08-02T10:33:21;2.13;;;1.47;;
18023;SDS011;9137;50.960;3.118;2022-08-02T10:35:51;1.60;;;1.27;;
18023;SDS011;9137;50.960;3.118;2022-08-02T10:38:22;3.27;;;1.20;;
18023;SDS011;9137;50.960;3.118;2022-08-02T10:40:50;1.50;;;1.30;;
18023;SDS011;9137;50.960;3.118;2022-08-02T10:43:39;2.47;;;1.30;;
18023;SDS011;9137;50.960;3.118;2022-08-02T10:46:23;2.60;;;1.40;;
18023;SDS011;9137;50.960;3.118;2022-08-02T10:49:03;2.55;;;1.58;;
18023;SDS011;9137;50.960;3.118;2022-08-02T10:54:31;2.10;;;1.23;;
18023;SDS011;9137;50.960;3.118;2022-08-02T10:57:00;1.48;;;1.38;;
18023;SDS011;9137;50.960;3.118;2022-08-02T10:59:28;2.22;;;1.70;;
18023;SDS011;9137;50.960;3.118;2022-08-02T11:01:57;1.60;;;1.15;;
18023;SDS011;9137;50.960;3.118;2022-08-02T11:04:28;1.98;;;1.25;;
18023;SDS011;9137;50.960;3.118;2022-08-02T11:07:06;2.40;;;1.30;;
18023;SDS011;9137;50.960;3.118;2022-08-02T11:09:38;3.97;;;1.23;;
18023;SDS011;9137;50.960;3.118;2022-08-02T11:12:06;2.80;;;1.10;;
18023;SDS011;9137;50.960;3.118;2022-08-02T11:14:35;3.42;;;1.20;;
18023;SDS011;9137;50.960;3.118;2022-08-02T11:17:13;1.40;;;1.10;;
18023;SDS011;9137;50.960;3.118;2022-08-02T11:22:41;2.83;;;1.03;;
18023;SDS011;9137;50.960;3.118;2022-08-02T11:27:57;1.13;;;1.00;;
18023;SDS011;9137;50.960;3.118;2022-08-02T11:30:25;2.10;;;1.10;;
18023;SDS011;9137;50.960;3.118;2022-08-02T11:32:54;1.98;;;1.10;;
18023;SDS011;9137;50.960;3.118;2022-08-02T11:35:22;2.50;;;1.17;;
18023;SDS011;9137;50.960;3.118;2022-08-02T11:38:02;3.10;;;1.63;;
18023;SDS011;9137;50.960;3.118;2022-08-02T11:40:41;4.60;;;1.05;;
18023;SDS011;9137;50.960;3.118;2022-08-02T11:43:18;1.73;;;1.17;;
18023;SDS011;9137;50.960;3.118;2022-08-02T11:45:46;2.80;;;1.20;;
18023;SDS011;9137;50.960;3.118;2022-08-02T11:48:13;4.70;;;1.33;;
18023;SDS011;9137;50.960;3.118;2022-08-02T11:51:01;3.03;;;1.10;;
18023;SDS011;9137;50.960;3.118;2022-08-02T11:53:31;2.83;;;1.30;;
18023;SDS011;9137;50.960;3.118;2022-08-02T11:56:05;2.28;;;0.98;;
18023;SDS011;9137;50.960;3.118;2022-08-02T11:58:32;3.58;;;1.13;;
18023;SDS011;9137;50.960;3.118;2022-08-02T12:00:59;3.70;;;1.27;;
18023;SDS011;9137;50.960;3.118;2022-08-02T12:03:27;3.70;;;1.30;;
18023;SDS011;9137;50.960;3.118;2022-08-02T12:05:58;1.55;;;0.98;;
18023;SDS011;9137;50.960;3.118;2022-08-02T12:08:25;1.95;;;1.27;;
18023;SDS011;9137;50.960;3.118;2022-08-02T12:10:53;3.93;;;1.23;;
18023;SDS011;9137;50.960;3.118;2022-08-02T12:13:20;2.55;;;1.30;;
18023;SDS011;9137;50.960;3.118;2022-08-02T12:15:47;2.10;;;1.20;;
18023;SDS011;9137;50.960;3.118;2022-08-02T12:18:16;2.58;;;1.20;;
18023;SDS011;9137;50.960;3.118;2022-08-02T12:21:08;1.52;;;1.00;;
18023;SDS011;9137;50.960;3.118;2022-08-02T12:23:47;1.80;;;1.20;;
18023;SDS011;9137;50.960;3.118;2022-08-02T12:26:15;3.22;;;1.38;;
18023;SDS011;9137;50.960;3.118;2022-08-02T12:28:42;1.25;;;1.00;;
18023;SDS011;9137;50.960;3.118;2022-08-02T12:31:10;2.28;;;0.90;;
18023;SDS011;9137;50.960;3.118;2022-08-02T12:33:45;2.90;;;0.90;;
18023;SDS011;9137;50.960;3.118;2022-08-02T12:36:14;1.75;;;1.25;;
18023;SDS011;9137;50.960;3.118;2022-08-02T12:38:48;2.25;;;1.20;;
18023;SDS011;9137;50.960;3.118;2022-08-02T12:41:18;4.32;;;1.20;;
18023;SDS011;9137;50.960;3.118;2022-08-02T12:43:45;2.58;;;1.10;;
18023;SDS011;9137;50.960;3.118;2022-08-02T12:46:14;2.03;;;1.20;;
18023;SDS011;9137;50.960;3.118;2022-08-02T12:48:41;1.77;;;0.90;;
18023;SDS011;9137;50.960;3.118;2022-08-02T12:51:19;2.88;;;0.93;;
18023;SDS011;9137;50.960;3.118;2022-08-02T12:53:47;2.45;;;0.90;;
18023;SDS011;9137;50.960;3.118;2022-08-02T12:56:26;2.15;;;0.75;;
18023;SDS011;9137;50.960;3.118;2022-08-02T12:58:55;1.67;;;0.73;;
18023;SDS011;9137;50.960;3.118;2022-08-02T13:01:24;3.92;;;0.88;;
18023;SDS011;9137;50.960;3.118;2022-08-02T13:03:53;3.13;;;0.90;;
18023;SDS011;9137;50.960;3.118;2022-08-02T13:06:22;1.90;;;0.65;;
18023;SDS011;9137;50.960;3.118;2022-08-02T13:08:49;1.73;;;0.80;;
18023;SDS011;9137;50.960;3.118;2022-08-02T13:11:18;1.23;;;0.80;;
18023;SDS011;9137;50.960;3.118;2022-08-02T13:13:47;2.08;;;0.65;;
18023;SDS011;9137;50.960;3.118;2022-08-02T13:16:14;2.47;;;0.83;;
18023;SDS011;9137;50.960;3.118;2022-08-02T13:18:41;2.70;;;0.80;;
18023;SDS011;9137;50.960;3.118;2022-08-02T13:21:10;1.45;;;0.85;;
18023;SDS011;9137;50.960;3.118;2022-08-02T13:23:37;1.63;;;0.82;;
18023;SDS011;9137;50.960;3.118;2022-08-02T13:26:04;1.50;;;0.70;;
18023;SDS011;9137;50.960;3.118;2022-08-02T13:28:31;1.20;;;0.80;;
18023;SDS011;9137;50.960;3.118;2022-08-02T13:31:00;2.90;;;1.00;;
18023;SDS011;9137;50.960;3.118;2022-08-02T13:33:27;1.90;;;0.98;;
18023;SDS011;9137;50.960;3.118;2022-08-02T13:35:54;2.60;;;1.20;;
18023;SDS011;9137;50.960;3.118;2022-08-02T13:38:21;4.70;;;0.95;;
18023;SDS011;9137;50.960;3.118;2022-08-02T13:40:48;2.50;;;0.80;;
18023;SDS011;9137;50.960;3.118;2022-08-02T13:43:33;2.30;;;0.87;;
18023;SDS011;9137;50.960;3.118;2022-08-02T13:46:02;2.05;;;1.00;;
18023;SDS011;9137;50.960;3.118;2022-08-02T13:48:30;3.55;;;1.20;;
18023;SDS011;9137;50.960;3.118;2022-08-02T13:50:57;1.42;;;0.80;;
18023;SDS011;9137;50.960;3.118;2022-08-02T13:53:24;2.22;;;0.90;;
18023;SDS011;9137;50.960;3.118;2022-08-02T13:55:51;2.35;;;0.90;;
18023;SDS011;9137;50.960;3.118;2022-08-02T13:58:18;1.65;;;0.80;;
18023;SDS011;9137;50.960;3.118;2022-08-02T14:00:45;2.47;;;0.93;;
18023;SDS011;9137;50.960;3.118;2022-08-02T14:03:13;6.38;;;1.48;;
18023;SDS011;9137;50.960;3.118;2022-08-02T14:05:41;3.13;;;0.90;;
18023;SDS011;9137;50.960;3.118;2022-08-02T14:08:08;3.07;;;1.20;;
18023;SDS011;9137;50.960;3.118;2022-08-02T14:10:35;2.67;;;1.08;;
18023;SDS011;9137;50.960;3.118;2022-08-02T14:13:02;2.50;;;0.80;;
18023;SDS011;9137;50.960;3.118;2022-08-02T14:15:29;3.23;;;1.00;;
18023;SDS011;9137;50.960;3.118;2022-08-02T14:17:56;2.17;;;0.82;;
18023;SDS011;9137;50.960;3.118;2022-08-02T14:20:24;2.00;;;0.80;;
18023;SDS011;9137;50.960;3.118;2022-08-02T14:22:51;2.40;;;0.82;;
18023;SDS011;9137;50.960;3.118;2022-08-02T14:25:19;2.50;;;0.90;;
18023;SDS011;9137;50.960;3.118;2022-08-02T14:27:46;1.67;;;0.90;;
18023;SDS011;9137;50.960;3.118;2022-08-02T14:30:12;3.10;;;1.10;;
18023;SDS011;9137;50.960;3.118;2022-08-02T14:32:40;3.42;;;0.85;;
18023;SDS011;9137;50.960;3.118;2022-08-02T14:35:07;2.45;;;0.80;;
18023;SDS011;9137;50.960;3.118;2022-08-02T14:37:36;2.07;;;0.93;;
18023;SDS011;9137;50.960;3.118;2022-08-02T14:40:04;2.20;;;0.73;;
18023;SDS011;9137;50.960;3.118;2022-08-02T14:42:31;2.30;;;1.00;;
18023;SDS011;9137;50.960;3.118;2022-08-02T14:44:58;1.35;;;0.60;;
18023;SDS011;9137;50.960;3.118;2022-08-02T14:47:25;3.63;;;1.02;;
18023;SDS011;9137;50.960;3.118;2022-08-02T14:49:52;2.10;;;0.95;;
18023;SDS011;9137;50.960;3.118;2022-08-02T14:52:19;2.63;;;0.85;;
18023;SDS011;9137;50.960;3.118;2022-08-02T14:54:48;2.35;;;0.60;;
18023;SDS011;9137;50.960;3.118;2022-08-02T14:57:15;2.03;;;0.77;;
18023;SDS011;9137;50.960;3.118;2022-08-02T14:59:42;1.40;;;0.70;;
18023;SDS011;9137;50.960;3.118;2022-08-02T15:02:09;1.95;;;0.80;;
18023;SDS011;9137;50.960;3.118;2022-08-02T15:04:36;2.90;;;1.10;;
18023;SDS011;9137;50.960;3.118;2022-08-02T15:07:03;2.95;;;0.73;;
18023;SDS011;9137;50.960;3.118;2022-08-02T15:09:30;1.85;;;1.13;;
18023;SDS011;9137;50.960;3.118;2022-08-02T15:11:58;3.30;;;0.83;;
18023;SDS011;9137;50.960;3.118;2022-08-02T15:14:25;3.53;;;0.85;;
18023;SDS011;9137;50.960;3.118;2022-08-02T15:16:52;1.85;;;0.73;;
18023;SDS011;9137;50.960;3.118;2022-08-02T15:19:19;2.95;;;0.70;;
18023;SDS011;9137;50.960;3.118;2022-08-02T15:21:46;2.78;;;1.15;;
18023;SDS011;9137;50.960;3.118;2022-08-02T15:24:13;3.45;;;0.98;;
18023;SDS011;9137;50.960;3.118;2022-08-02T15:26:40;1.75;;;0.90;;
18023;SDS011;9137;50.960;3.118;2022-08-02T15:29:09;1.20;;;0.60;;